Time;durP1;ratioP1;P1;durP2;ratioP2;P2;SDS_P1;SDS_P2;PMS_P1;PMS_P2;Temp;Humidity;BMP_temperature;BMP_pressure;BME280_temperature;BME280_humidity;BME280_pressure;Samples;Min_cycle;Max_cycle;Signal;HPM_P1;HPM_P2
2021/09/23 00:00:54;;;;;;;19.80;8.70;;;;;;;;;;7329569;19;162074;-19
2021/09/23 00:05:57;;;;;;;19.33;8.40;;;;;;;;;;7328418;19;153795;-17
2021/09/23 00:08:26;;;;;;;17.95;7.70;;;;;;;;;;7329388;19;161633;-18
2021/09/23 00:10:54;;;;;;;17.10;7.93;;;;;;;;;;7328994;19;162965;-18
2021/09/23 00:13:25;;;;;;;21.65;8.15;;;;;;;;;;7330089;19;154041;-18
2021/09/23 00:15:53;;;;;;;14.95;7.82;;;;;;;;;;7330527;19;153546;-17
2021/09/23 00:18:26;;;;;;;13.40;7.30;;;;;;;;;;7330149;19;161803;-18
2021/09/23 00:20:54;;;;;;;13.50;7.80;;;;;;;;;;7329078;19;162435;-18
2021/09/23 00:23:22;;;;;;;14.00;8.45;;;;;;;;;;7330685;19;154017;-17
2021/09/23 00:26:08;;;;;;;16.15;8.13;;;;;;;;;;7329797;19;153798;-16
2021/09/23 08:03:34;;;;;;;21.45;9.75;;;;;;;;;;7364994;19;132730;-18
2021/09/23 08:06:03;;;;;;;26.23;9.45;;;;;;;;;;7191308;19;3261277;-19
2021/09/23 08:08:33;;;;;;;23.83;9.65;;;;;;;;;;7362660;19;162018;-17
2021/09/23 08:11:02;;;;;;;27.38;9.48;;;;;;;;;;7362359;19;162332;-17
2021/09/23 08:13:30;;;;;;;23.08;8.55;;;;;;;;;;7363222;19;154206;-18
2021/09/23 08:15:58;;;;;;;25.30;8.60;;;;;;;;;;7362638;19;153548;-16
2021/09/23 08:18:52;;;;;;;16.80;9.25;;;;;;;;;;7361741;19;162039;-17
2021/09/23 08:21:41;;;;;;;22.40;9.70;;;;;;;;;;7363794;19;162362;-18
2021/09/23 08:24:09;;;;;;;20.98;9.55;;;;;;;;;;7362683;19;153935;-18
2021/09/23 08:26:37;;;;;;;20.58;9.25;;;;;;;;;;7366587;19;153559;-17
2021/09/23 08:29:04;;;;;;;18.85;8.60;;;;;;;;;;7361847;19;162182;-18
2021/09/23 08:31:32;;;;;;;20.13;8.63;;;;;;;;;;7361222;19;162347;-18
2021/09/23 08:34:01;;;;;;;21.20;9.05;;;;;;;;;;7362539;19;154114;-17
2021/09/23 08:36:29;;;;;;;15.52;8.85;;;;;;;;;;7365485;19;154092;-17
2021/09/23 08:38:57;;;;;;;19.83;9.27;;;;;;;;;;7361884;19;162015;-16
2021/09/23 08:41:25;;;;;;;15.82;8.73;;;;;;;;;;7361720;19;162589;-18
2021/09/23 08:43:56;;;;;;;21.20;9.10;;;;;;;;;;7364333;19;154134;-17
2021/09/23 08:46:27;;;;;;;17.38;9.27;;;;;;;;;;7362067;19;153622;-17
2021/09/23 08:48:55;;;;;;;16.80;9.02;;;;;;;;;;7361329;19;162033;-15
2021/09/23 08:51:27;;;;;;;17.77;8.60;;;;;;;;;;7361085;19;162145;-17
2021/09/23 08:53:56;;;;;;;18.45;8.68;;;;;;;;;;7361965;19;154217;-17
2021/09/23 08:56:23;;;;;;;23.23;9.13;;;;;;;;;;7363288;19;153719;-27
2021/09/23 08:58:52;;;;;;;18.15;8.43;;;;;;;;;;7361421;19;161938;-14
2021/09/23 09:01:23;;;;;;;18.30;8.70;;;;;;;;;;7361800;19;162433;-18
2021/09/23 09:04:02;;;;;;;18.02;8.73;;;;;;;;;;7339378;19;154237;-16
2021/09/23 09:07:03;;;;;;;18.67;8.87;;;;;;;;;;7331648;19;154367;-16
2021/09/23 09:09:49;;;;;;;17.27;7.53;;;;;;;;;;7332506;19;161920;-15
2021/09/23 09:12:18;;;;;;;18.30;8.75;;;;;;;;;;7332451;19;162274;-17
2021/09/23 09:14:47;;;;;;;16.98;8.43;;;;;;;;;;7332963;19;154199;-17
2021/09/23 09:17:19;;;;;;;15.38;8.43;;;;;;;;;;7333935;19;153591;-27
2021/09/23 09:19:57;;;;;;;16.42;8.05;;;;;;;;;;7332499;19;161900;-16
2021/09/23 09:22:28;;;;;;;21.83;9.83;;;;;;;;;;7333189;19;162438;-17
2021/09/23 09:25:08;;;;;;;18.45;9.63;;;;;;;;;;7332503;19;153997;-16
2021/09/23 09:27:40;;;;;;;16.60;9.23;;;;;;;;;;7332107;19;153745;-16
2021/09/23 09:30:09;;;;;;;17.17;8.45;;;;;;;;;;7332943;19;162528;-16
2021/09/23 09:32:40;;;;;;;16.00;8.73;;;;;;;;;;7331615;19;162365;-16
2021/09/23 09:35:18;;;;;;;18.83;8.63;;;;;;;;;;7332431;19;154077;-19
2021/09/23 09:37:50;;;;;;;18.63;9.00;;;;;;;;;;7332219;19;153332;-18
2021/09/23 09:40:32;;;;;;;20.15;8.80;;;;;;;;;;7333024;19;161781;-18
2021/09/23 09:43:04;;;;;;;14.38;8.52;;;;;;;;;;7331603;19;162383;-18
2021/09/23 09:45:35;;;;;;;18.60;8.55;;;;;;;;;;7331961;19;153992;-19
2021/09/23 09:48:04;;;;;;;19.17;8.50;;;;;;;;;;7331670;19;153726;-18
2021/09/23 09:50:36;;;;;;;17.92;8.55;;;;;;;;;;7331160;19;161921;-19
2021/09/23 09:53:08;;;;;;;17.30;8.88;;;;;;;;;;7329416;19;162371;-19
2021/09/23 09:55:43;;;;;;;16.80;8.57;;;;;;;;;;7331728;19;153941;-18
2021/09/23 09:58:13;;;;;;;14.88;8.93;;;;;;;;;;7331402;19;153629;-20
2021/09/23 10:00:43;;;;;;;16.95;8.50;;;;;;;;;;7331055;19;162117;-19
2021/09/23 10:03:12;;;;;;;18.23;8.90;;;;;;;;;;7330932;19;162427;-19
2021/09/23 10:05:43;;;;;;;19.23;9.05;;;;;;;;;;7329323;19;153986;-19
2021/09/23 10:08:16;;;;;;;16.17;9.07;;;;;;;;;;7332372;19;153613;-18
2021/09/23 10:10:46;;;;;;;17.27;8.55;;;;;;;;;;7330848;19;162138;-19
2021/09/23 10:13:15;;;;;;;15.63;9.02;;;;;;;;;;7329049;19;162543;-17
2021/09/23 10:15:43;;;;;;;17.85;8.63;;;;;;;;;;7328571;19;153793;-17
2021/09/23 10:18:11;;;;;;;19.33;9.52;;;;;;;;;;7330839;19;153562;-17
2021/09/23 10:20:45;;;;;;;18.15;9.05;;;;;;;;;;7330519;19;162503;-18
2021/09/23 10:23:13;;;;;;;17.58;8.23;;;;;;;;;;7330204;19;162336;-19
2021/09/23 10:25:52;;;;;;;21.27;8.82;;;;;;;;;;7330706;19;153907;-20
2021/09/23 10:28:20;;;;;;;17.17;8.75;;;;;;;;;;7330433;19;153962;-19
2021/09/23 10:30:49;;;;;;;16.48;8.82;;;;;;;;;;7331315;19;161958;-17
2021/09/23 10:33:20;;;;;;;17.13;9.10;;;;;;;;;;7328286;19;162223;-18
2021/09/23 10:35:49;;;;;;;20.48;9.02;;;;;;;;;;7330419;19;154119;-18
2021/09/23 10:38:24;;;;;;;18.13;9.88;;;;;;;;;;7330493;19;153372;-18
2021/09/23 10:40:53;;;;;;;28.23;9.73;;;;;;;;;;7330203;19;161960;-18
2021/09/23 10:43:22;;;;;;;16.92;9.95;;;;;;;;;;7330062;19;162577;-19
2021/09/23 10:45:58;;;;;;;18.45;9.88;;;;;;;;;;7330398;19;153950;-19
2021/09/23 10:48:33;;;;;;;17.92;9.63;;;;;;;;;;7330284;19;153690;-16
2021/09/23 10:51:05;;;;;;;16.77;9.95;;;;;;;;;;7329892;19;161829;-16
2021/09/23 10:53:35;;;;;;;17.73;10.90;;;;;;;;;;7327702;19;162358;-28
2021/09/23 10:56:09;;;;;;;21.10;10.82;;;;;;;;;;7331482;19;154165;-18
2021/09/23 10:58:43;;;;;;;20.23;10.20;;;;;;;;;;7329737;19;153891;-17
2021/09/23 11:01:29;;;;;;;18.33;10.20;;;;;;;;;;7329647;19;161985;-18
2021/09/23 11:03:59;;;;;;;20.23;10.75;;;;;;;;;;7328924;19;162368;-17
2021/09/23 11:06:35;;;;;;;;;;;;;;;;;;7327326;19;153903;-17
2021/09/23 11:09:23;;;;;;;20.63;10.10;;;;;;;;;;7329993;19;153520;-18
2021/09/23 11:12:11;;;;;;;23.00;10.55;;;;;;;;;;7329160;19;161857;-18
2021/09/23 11:14:47;;;;;;;16.42;9.18;;;;;;;;;;7329347;19;162436;-18
2021/09/23 11:17:19;;;;;;;17.15;9.55;;;;;;;;;;7330793;19;154031;-19
2021/09/23 11:19:58;;;;;;;15.68;9.15;;;;;;;;;;7329321;19;153588;-19
2021/09/23 11:22:38;;;;;;;18.85;9.05;;;;;;;;;;7328892;19;161664;-18
2021/09/23 11:25:13;;;;;;;23.83;9.13;;;;;;;;;;7328674;19;162330;-17
2021/09/23 11:27:43;;;;;;;19.30;9.55;;;;;;;;;;7328466;19;154183;-19
2021/09/23 11:30:14;;;;;;;19.23;10.23;;;;;;;;;;7328736;19;153668;-20
2021/09/23 11:32:57;;;;;;;20.77;9.27;;;;;;;;;;7327691;19;162118;-18
2021/09/23 11:35:30;;;;;;;19.38;9.10;;;;;;;;;;7328470;19;162218;-18
2021/09/23 11:37:59;;;;;;;19.40;9.98;;;;;;;;;;7328946;19;153989;-17
2021/09/23 11:40:33;;;;;;;17.20;9.68;;;;;;;;;;7328498;19;153899;-17
2021/09/23 11:43:04;;;;;;;19.33;9.77;;;;;;;;;;7328060;19;162086;-18
2021/09/23 11:45:35;;;;;;;17.40;9.27;;;;;;;;;;7327972;19;162429;-16
2021/09/23 11:48:10;;;;;;;16.80;9.43;;;;;;;;;;7328546;19;154005;-19
2021/09/23 11:50:49;;;;;;;18.38;8.98;;;;;;;;;;7328550;19;153671;-17
2021/09/23 11:53:25;;;;;;;14.10;8.43;;;;;;;;;;7326039;19;163715;-17
2021/09/23 11:56:07;;;;;;;21.70;9.45;;;;;;;;;;7327233;19;162067;-17
2021/09/23 11:58:48;;;;;;;14.32;8.85;;;;;;;;;;7328690;19;154244;-19
2021/09/23 12:01:22;;;;;;;23.35;9.13;;;;;;;;;;7327241;19;153328;-17
2021/09/23 12:03:52;;;;;;;23.77;9.32;;;;;;;;;;7327184;19;161737;-17
2021/09/23 12:06:23;;;;;;;19.73;9.43;;;;;;;;;;7324620;19;164069;-19
2021/09/23 12:09:14;;;;;;;25.08;11.25;;;;;;;;;;7329024;19;153656;-18
2021/09/23 12:11:48;;;;;;;19.17;10.18;;;;;;;;;;7327453;19;153517;-18
2021/09/23 12:14:21;;;;;;;20.85;9.90;;;;;;;;;;7324441;19;161961;-20
2021/09/23 12:16:59;;;;;;;17.42;9.60;;;;;;;;;;7326467;19;162359;-19
2021/09/23 12:19:30;;;;;;;17.25;9.50;;;;;;;;;;7327677;19;154096;-17
2021/09/23 12:21:58;;;;;;;19.70;8.98;;;;;;;;;;7327356;19;153658;-17
2021/09/23 12:24:40;;;;;;;20.30;9.25;;;;;;;;;;7327175;19;161659;-16
2021/09/23 12:27:29;;;;;;;19.40;8.57;;;;;;;;;;7328248;19;162646;-18
2021/09/23 12:29:57;;;;;;;16.77;9.00;;;;;;;;;;7327383;19;154159;-19
2021/09/23 12:32:41;;;;;;;18.38;8.90;;;;;;;;;;7326708;19;153764;-18
2021/09/23 12:35:20;;;;;;;18.85;9.07;;;;;;;;;;7330269;19;161964;-17
2021/09/23 12:37:54;;;;;;;19.88;8.70;;;;;;;;;;7327262;19;162569;-16
2021/09/23 12:40:43;;;;;;;20.73;9.20;;;;;;;;;;7333938;19;154128;-18
2021/09/23 12:43:17;;;;;;;19.70;8.85;;;;;;;;;;7334964;19;153423;-17
2021/09/23 12:46:09;;;;;;;21.45;8.57;;;;;;;;;;7333266;19;162039;-18
2021/09/23 12:48:38;;;;;;;16.98;8.35;;;;;;;;;;7337004;19;162603;-19
2021/09/23 12:51:06;;;;;;;17.40;8.77;;;;;;;;;;7333936;19;154009;-16
2021/09/23 12:53:35;;;;;;;18.70;8.95;;;;;;;;;;7332688;19;153676;-17
2021/09/23 12:56:07;;;;;;;18.58;8.68;;;;;;;;;;7333182;19;161951;-18
2021/09/23 12:58:35;;;;;;;16.47;8.73;;;;;;;;;;7333229;19;162380;-18
2021/09/23 13:01:19;;;;;;;15.98;9.23;;;;;;;;;;7334606;19;154080;-18
2021/09/23 13:03:50;;;;;;;20.75;9.27;;;;;;;;;;7333426;19;153885;-18
2021/09/23 13:06:31;;;;;;;24.20;9.20;;;;;;;;;;7330196;19;161999;-19
2021/09/23 13:09:07;;;;;;;16.92;8.10;;;;;;;;;;7332814;19;162335;-18
2021/09/23 13:11:35;;;;;;;25.05;9.48;;;;;;;;;;7333100;19;153942;-17
2021/09/23 13:14:27;;;;;;;21.08;9.60;;;;;;;;;;7331382;19;153715;-16
2021/09/23 13:17:02;;;;;;;21.20;10.30;;;;;;;;;;7332195;19;161771;-18
2021/09/23 13:19:39;;;;;;;23.58;9.98;;;;;;;;;;7332426;19;162197;-20
2021/09/23 13:22:16;;;;;;;19.73;9.35;;;;;;;;;;7332420;19;154339;-17
2021/09/23 13:24:51;;;;;;;19.48;9.70;;;;;;;;;;7329189;19;153657;-17
2021/09/23 13:27:21;;;;;;;19.27;9.25;;;;;;;;;;7328104;19;162198;-16
2021/09/23 13:29:49;;;;;;;28.13;9.88;;;;;;;;;;7331736;19;162518;-18
2021/09/23 13:32:17;;;;;;;22.55;9.70;;;;;;;;;;7331837;19;154135;-21
2021/09/23 13:34:52;;;;;;;23.25;9.88;;;;;;;;;;7329553;19;153554;-17
2021/09/23 13:37:23;;;;;;;17.08;10.20;;;;;;;;;;7331332;19;161942;-26
2021/09/23 13:39:55;;;;;;;17.20;9.32;;;;;;;;;;7331213;19;162614;-16
2021/09/23 13:42:27;;;;;;;24.40;9.73;;;;;;;;;;7331695;19;154043;-15
2021/09/23 13:45:09;;;;;;;17.20;9.93;;;;;;;;;;7332098;19;153772;-17
2021/09/23 13:47:40;;;;;;;20.55;10.00;;;;;;;;;;7331806;19;162263;-18
2021/09/23 13:50:09;;;;;;;20.33;9.77;;;;;;;;;;7331264;19;162333;-18
2021/09/23 13:52:37;;;;;;;18.17;9.73;;;;;;;;;;7331618;19;153944;-19
2021/09/23 13:55:06;;;;;;;17.48;9.80;;;;;;;;;;7329561;19;153864;-17
2021/09/23 13:57:34;;;;;;;17.88;9.27;;;;;;;;;;7331213;19;161861;-20
2021/09/23 14:00:04;;;;;;;15.07;8.88;;;;;;;;;;7331264;19;162278;-17
2021/09/23 14:02:45;;;;;;;15.70;9.10;;;;;;;;;;7332919;19;154015;-18
2021/09/23 14:05:19;;;;;;;17.38;9.60;;;;;;;;;;7329935;19;153929;-17
2021/09/23 14:07:49;;;;;;;14.68;9.65;;;;;;;;;;7331054;19;162020;-18
2021/09/23 14:10:18;;;;;;;19.13;10.27;;;;;;;;;;7331071;19;162491;-19
2021/09/23 14:13:10;;;;;;;15.90;9.37;;;;;;;;;;7332307;19;154055;-18
2021/09/23 14:15:38;;;;;;;20.20;10.18;;;;;;;;;;7331107;19;153801;-19
2021/09/23 14:18:07;;;;;;;19.05;10.10;;;;;;;;;;7330794;19;161761;-17
2021/09/23 14:20:42;;;;;;;17.65;10.52;;;;;;;;;;7330704;19;162212;-18
2021/09/23 14:23:10;;;;;;;16.65;9.00;;;;;;;;;;7331189;19;154155;-18
2021/09/23 14:25:38;;;;;;;16.45;9.45;;;;;;;;;;7331040;19;153927;-18
2021/09/23 14:28:09;;;;;;;13.70;9.38;;;;;;;;;;7330371;19;161906;-18
2021/09/23 14:30:37;;;;;;;16.20;8.93;;;;;;;;;;7330343;19;162178;-17
2021/09/23 14:33:06;;;;;;;16.55;9.63;;;;;;;;;;7330564;19;154337;-19
2021/09/23 14:35:34;;;;;;;15.10;9.30;;;;;;;;;;7328829;19;153705;-19
2021/09/23 14:38:02;;;;;;;16.35;9.75;;;;;;;;;;7331394;19;161804;-17
2021/09/23 14:40:34;;;;;;;15.73;9.27;;;;;;;;;;7331552;19;162509;-17
2021/09/23 14:43:03;;;;;;;17.00;9.43;;;;;;;;;;7332079;19;154108;-19
2021/09/23 14:45:31;;;;;;;14.23;8.88;;;;;;;;;;7331708;19;153583;-17
2021/09/23 14:47:59;;;;;;;13.23;8.95;;;;;;;;;;7330986;19;162059;-19
2021/09/23 14:50:27;;;;;;;13.85;9.18;;;;;;;;;;7330961;19;162304;-19
2021/09/23 14:52:55;;;;;;;16.15;8.68;;;;;;;;;;7331436;19;153939;-18
2021/09/23 14:55:23;;;;;;;17.67;10.10;;;;;;;;;;7328968;19;153510;-18
2021/09/23 14:57:51;;;;;;;13.00;8.50;;;;;;;;;;7331183;19;162011;-17
2021/09/23 15:00:19;;;;;;;14.82;9.63;;;;;;;;;;7330431;19;162524;-18
2021/09/23 15:02:47;;;;;;;17.63;9.50;;;;;;;;;;7330433;19;154110;-19
2021/09/23 15:05:16;;;;;;;13.18;9.07;;;;;;;;;;7329866;19;153539;-18
2021/09/23 15:07:44;;;;;;;17.13;9.27;;;;;;;;;;7330686;19;162171;-18
2021/09/23 15:10:12;;;;;;;14.80;9.02;;;;;;;;;;7330281;19;162566;-16
2021/09/23 15:12:40;;;;;;;15.15;9.05;;;;;;;;;;7329892;19;153916;-18
2021/09/23 15:15:10;;;;;;;13.40;9.25;;;;;;;;;;7328568;19;153922;-19
2021/09/23 15:17:37;;;;;;;14.88;9.07;;;;;;;;;;7329132;19;161838;-18
2021/09/23 15:20:06;;;;;;;17.05;9.82;;;;;;;;;;7330229;19;162521;-18
2021/09/23 15:22:34;;;;;;;16.83;9.18;;;;;;;;;;7329897;19;154141;-17
2021/09/23 15:25:03;;;;;;;21.85;10.52;;;;;;;;;;7330643;19;153578;-17
2021/09/23 15:27:31;;;;;;;22.85;11.10;;;;;;;;;;7330143;19;161910;-17
2021/09/23 15:29:59;;;;;;;17.70;10.30;;;;;;;;;;7330064;19;162289;-18
2021/09/23 15:32:26;;;;;;;22.42;11.30;;;;;;;;;;7329191;19;154042;-18
2021/09/23 15:34:54;;;;;;;18.98;11.10;;;;;;;;;;7328460;19;153601;-19
2021/09/23 15:37:22;;;;;;;22.20;11.35;;;;;;;;;;7330612;19;162127;-17
2021/09/23 15:39:50;;;;;;;20.23;11.73;;;;;;;;;;7329801;19;162340;-18
2021/09/23 15:42:19;;;;;;;20.27;11.57;;;;;;;;;;7328773;19;153738;-17
2021/09/23 15:44:47;;;;;;;19.42;11.73;;;;;;;;;;7330410;19;153559;-18
2021/09/23 15:47:16;;;;;;;19.67;11.73;;;;;;;;;;7330239;19;161874;-19
2021/09/23 15:49:46;;;;;;;20.00;11.30;;;;;;;;;;7331067;19;162969;-18
2021/09/23 15:52:15;;;;;;;19.30;11.18;;;;;;;;;;7330974;19;154228;-18
2021/09/23 15:54:42;;;;;;;21.00;10.75;;;;;;;;;;7330866;19;153768;-18
2021/09/23 15:57:12;;;;;;;21.58;11.27;;;;;;;;;;7330123;19;161805;-19
2021/09/23 15:59:42;;;;;;;19.00;11.15;;;;;;;;;;7330019;19;162433;-18
2021/09/23 16:02:11;;;;;;;19.50;11.93;;;;;;;;;;7332193;19;154075;-18
2021/09/23 16:04:40;;;;;;;28.42;13.32;;;;;;;;;;7331612;19;153580;-18
2021/09/23 16:07:11;;;;;;;20.20;10.98;;;;;;;;;;7330352;19;161869;-17
2021/09/23 16:09:38;;;;;;;21.38;11.57;;;;;;;;;;7331845;19;162342;-17
2021/09/23 16:12:07;;;;;;;21.20;11.60;;;;;;;;;;7332722;19;153980;-18
2021/09/23 16:14:35;;;;;;;21.63;12.02;;;;;;;;;;7336346;19;154183;-18
2021/09/23 16:17:04;;;;;;;22.10;11.85;;;;;;;;;;7337527;19;161967;-19
2021/09/23 16:19:33;;;;;;;22.08;12.18;;;;;;;;;;7337471;19;162290;-18
2021/09/23 16:22:02;;;;;;;20.10;11.75;;;;;;;;;;7336056;19;154148;-19
2021/09/23 16:24:31;;;;;;;22.58;10.88;;;;;;;;;;7334506;19;153348;-17
2021/09/23 16:26:58;;;;;;;19.00;11.73;;;;;;;;;;7335459;19;162110;-19
2021/09/23 16:29:30;;;;;;;23.65;11.73;;;;;;;;;;7334187;19;161994;-19
2021/09/23 16:31:59;;;;;;;23.17;12.05;;;;;;;;;;7338701;19;154201;-17
2021/09/23 16:34:28;;;;;;;21.67;11.68;;;;;;;;;;7334719;19;153640;-18
2021/09/23 16:36:56;;;;;;;27.67;11.52;;;;;;;;;;7334848;19;161866;-19
2021/09/23 16:39:24;;;;;;;20.27;11.68;;;;;;;;;;7335086;19;162287;-18
2021/09/23 16:41:53;;;;;;;24.33;12.52;;;;;;;;;;7334417;19;153897;-20
2021/09/23 16:44:21;;;;;;;21.65;11.77;;;;;;;;;;7335168;19;153379;-19
2021/09/23 16:46:49;;;;;;;21.23;11.35;;;;;;;;;;7333927;19;161848;-17
2021/09/23 16:49:17;;;;;;;24.10;11.55;;;;;;;;;;7334772;19;162430;-17
2021/09/23 16:51:45;;;;;;;19.77;10.73;;;;;;;;;;7337765;19;153939;-20
2021/09/23 16:54:14;;;;;;;24.85;11.40;;;;;;;;;;7337285;19;153598;-18
2021/09/23 16:56:42;;;;;;;22.65;11.93;;;;;;;;;;7337561;19;161999;-19
2021/09/23 16:59:10;;;;;;;22.65;11.60;;;;;;;;;;7337750;19;162353;-18
2021/09/23 17:01:39;;;;;;;25.95;11.88;;;;;;;;;;7337152;19;154022;-19
2021/09/23 17:04:08;;;;;;;18.90;11.45;;;;;;;;;;7336964;19;154097;-17
2021/09/23 17:06:38;;;;;;;22.65;12.63;;;;;;;;;;7334222;19;161816;-19
2021/09/23 17:09:09;;;;;;;25.23;11.35;;;;;;;;;;7337298;19;162513;-17
2021/09/23 17:11:37;;;;;;;18.33;10.85;;;;;;;;;;7336183;19;154044;-17
2021/09/23 17:14:05;;;;;;;22.92;10.95;;;;;;;;;;7337615;19;153626;-18
2021/09/23 17:16:33;;;;;;;24.98;11.52;;;;;;;;;;7334482;19;161959;-19
2021/09/23 17:19:02;;;;;;;24.90;13.05;;;;;;;;;;7334977;19;162475;-16
2021/09/23 17:21:32;;;;;;;24.27;13.27;;;;;;;;;;7336535;19;153745;-17
2021/09/23 17:24:01;;;;;;;23.65;12.73;;;;;;;;;;7334770;19;153805;-16
2021/09/23 17:26:29;;;;;;;24.55;13.63;;;;;;;;;;7333659;19;161835;-18
2021/09/23 17:28:57;;;;;;;21.67;12.45;;;;;;;;;;7335785;19;162181;-18
2021/09/23 17:31:25;;;;;;;18.83;11.45;;;;;;;;;;7337140;19;153826;-19
2021/09/23 17:33:54;;;;;;;25.63;11.45;;;;;;;;;;7336846;19;153620;-17
2021/09/23 17:36:25;;;;;;;24.08;11.70;;;;;;;;;;7335278;19;162047;-18
2021/09/23 17:38:52;;;;;;;18.08;10.90;;;;;;;;;;7335152;19;162546;-17
2021/09/23 17:41:20;;;;;;;19.52;10.80;;;;;;;;;;7329719;19;153695;-19
2021/09/23 17:43:50;;;;;;;23.90;11.50;;;;;;;;;;7328881;19;153900;-18
2021/09/23 17:46:18;;;;;;;22.15;11.25;;;;;;;;;;7327742;19;161800;-17
2021/09/23 17:48:46;;;;;;;27.48;13.10;;;;;;;;;;7331563;19;162652;-17
2021/09/23 17:51:15;;;;;;;21.75;10.85;;;;;;;;;;7332601;19;154103;-17
2021/09/23 17:53:43;;;;;;;19.33;10.80;;;;;;;;;;7332425;19;153651;-18
2021/09/23 17:56:11;;;;;;;23.58;10.70;;;;;;;;;;7330518;19;162527;-17
2021/09/23 17:58:38;;;;;;;20.73;11.35;;;;;;;;;;7332683;19;162284;-17
2021/09/23 18:01:06;;;;;;;20.73;10.40;;;;;;;;;;7331838;19;154315;-18
2021/09/23 18:03:37;;;;;;;20.35;10.15;;;;;;;;;;7332815;19;153838;-19
2021/09/23 18:06:07;;;;;;;20.20;10.80;;;;;;;;;;7330004;19;161582;-19
2021/09/23 18:08:36;;;;;;;20.17;10.40;;;;;;;;;;7332393;19;162335;-18
2021/09/23 18:11:04;;;;;;;20.13;11.45;;;;;;;;;;7332896;19;154161;-17
2021/09/23 18:13:32;;;;;;;18.70;10.55;;;;;;;;;;7332666;19;154135;-18
2021/09/23 18:16:00;;;;;;;21.05;10.57;;;;;;;;;;7329621;19;161772;-17
2021/09/23 18:18:28;;;;;;;20.27;11.30;;;;;;;;;;7331127;19;162487;-18
2021/09/23 18:20:56;;;;;;;17.20;10.48;;;;;;;;;;7332371;19;154486;-18
2021/09/23 18:23:39;;;;;;;;;;;;;;;;;;7332719;19;153567;-19
2021/09/23 18:26:09;;;;;;;18.38;9.88;;;;;;;;;;7330857;19;162251;-18
2021/09/23 18:28:39;;;;;;;19.45;10.05;;;;;;;;;;7331618;19;162479;-19
2021/09/23 18:31:07;;;;;;;18.48;10.55;;;;;;;;;;7331072;19;154000;-18
2021/09/23 18:33:35;;;;;;;18.55;10.40;;;;;;;;;;7331877;19;153568;-18
2021/09/23 18:36:03;;;;;;;20.98;10.57;;;;;;;;;;7327739;19;161797;-17
2021/09/23 18:38:31;;;;;;;16.95;10.27;;;;;;;;;;7331415;19;162429;-26
2021/09/23 18:40:59;;;;;;;20.77;10.35;;;;;;;;;;7331849;19;153798;-18
2021/09/23 18:43:27;;;;;;;19.70;10.90;;;;;;;;;;7331513;19;153665;-18
2021/09/23 18:45:55;;;;;;;20.40;10.20;;;;;;;;;;7331168;19;161959;-19
2021/09/23 18:48:23;;;;;;;20.25;9.75;;;;;;;;;;7330767;19;162184;-18
2021/09/23 18:50:51;;;;;;;21.35;10.80;;;;;;;;;;7331506;19;154024;-17
2021/09/23 18:53:19;;;;;;;21.80;10.63;;;;;;;;;;7331136;19;153598;-17
2021/09/23 18:55:47;;;;;;;21.27;10.60;;;;;;;;;;7330125;19;162232;-18
2021/09/23 18:58:15;;;;;;;18.67;10.60;;;;;;;;;;7331032;19;162418;-17
2021/09/23 19:00:43;;;;;;;19.67;10.60;;;;;;;;;;7330169;19;154096;-17
2021/09/23 19:03:12;;;;;;;17.70;10.15;;;;;;;;;;7329700;19;153422;-16
2021/09/23 19:05:41;;;;;;;20.15;10.40;;;;;;;;;;7330950;19;162002;-19
2021/09/23 19:08:10;;;;;;;20.52;10.27;;;;;;;;;;7328329;19;162534;-18
2021/09/23 19:10:39;;;;;;;18.20;10.82;;;;;;;;;;7330970;19;153925;-18
2021/09/23 19:13:09;;;;;;;29.27;11.20;;;;;;;;;;7329512;19;153946;-14
2021/09/23 19:15:37;;;;;;;23.17;10.57;;;;;;;;;;7326857;19;161938;-15
2021/09/23 19:18:07;;;;;;;18.45;10.25;;;;;;;;;;7329996;19;162356;-13
2021/09/23 19:20:35;;;;;;;20.77;9.65;;;;;;;;;;7330189;19;154363;-15
2021/09/23 19:23:04;;;;;;;15.43;9.25;;;;;;;;;;7329080;19;153363;-16
2021/09/23 19:25:32;;;;;;;18.88;10.32;;;;;;;;;;7328105;19;161879;-12
2021/09/23 19:28:00;;;;;;;16.17;8.85;;;;;;;;;;7325694;19;162271;-12
2021/09/23 19:30:28;;;;;;;27.45;10.15;;;;;;;;;;7328095;19;154199;-14
2021/09/23 19:32:57;;;;;;;20.17;9.75;;;;;;;;;;7329642;19;153608;-12
2021/09/23 19:35:26;;;;;;;16.42;8.77;;;;;;;;;;7330267;19;161952;-13
2021/09/23 19:37:58;;;;;;;17.27;9.90;;;;;;;;;;7329102;19;162236;-13
2021/09/23 19:40:26;;;;;;;17.00;8.68;;;;;;;;;;7328507;19;154353;-16
2021/09/23 19:42:55;;;;;;;20.77;8.93;;;;;;;;;;7329578;19;153666;-13
2021/09/23 19:45:24;;;;;;;16.08;9.18;;;;;;;;;;7329103;19;161797;-16
2021/09/23 19:47:54;;;;;;;16.73;9.45;;;;;;;;;;7328856;19;162301;-15
2021/09/23 19:50:24;;;;;;;16.65;9.57;;;;;;;;;;7332016;19;153979;-13
2021/09/23 19:52:53;;;;;;;14.13;8.38;;;;;;;;;;7329711;19;153604;-16
2021/09/23 19:55:21;;;;;;;16.15;9.45;;;;;;;;;;7327932;19;161862;-14
2021/09/23 19:57:49;;;;;;;18.25;9.63;;;;;;;;;;7328066;19;162412;-15
2021/09/23 20:00:17;;;;;;;19.42;9.98;;;;;;;;;;7329266;19;154051;-15
2021/09/23 20:02:45;;;;;;;24.63;10.35;;;;;;;;;;7329041;19;153712;-16
2021/09/23 20:05:14;;;;;;;17.98;8.90;;;;;;;;;;7328765;19;161771;-15
2021/09/23 20:07:42;;;;;;;17.00;8.30;;;;;;;;;;7327833;19;162467;-13
2021/09/23 20:10:13;;;;;;;19.45;8.65;;;;;;;;;;7331743;19;154048;-14
2021/09/23 20:12:42;;;;;;;13.93;9.00;;;;;;;;;;7328616;19;153774;-14
2021/09/23 20:15:10;;;;;;;15.77;8.85;;;;;;;;;;7329623;19;161766;-17
2021/09/23 20:17:40;;;;;;;15.23;8.75;;;;;;;;;;7328960;19;162276;-13
2021/09/23 20:20:08;;;;;;;18.52;8.77;;;;;;;;;;7331327;19;154606;-16
2021/09/23 20:22:48;;;;;;;18.92;9.73;;;;;;;;;;7331841;19;153538;-16
2021/09/23 20:25:16;;;;;;;18.17;9.05;;;;;;;;;;7330646;19;161977;-15
2021/09/23 20:27:46;;;;;;;19.35;8.80;;;;;;;;;;7330036;19;162348;-16
2021/09/23 20:30:15;;;;;;;18.77;8.73;;;;;;;;;;7331644;19;154207;-13
2021/09/23 20:32:43;;;;;;;14.90;7.93;;;;;;;;;;7330213;19;153581;-14
2021/09/23 20:35:12;;;;;;;17.67;9.02;;;;;;;;;;7330618;19;161866;-14
2021/09/23 20:37:41;;;;;;;16.55;8.45;;;;;;;;;;7328216;19;162459;-15
2021/09/23 20:40:10;;;;;;;14.95;8.32;;;;;;;;;;7329751;19;154114;-14
2021/09/23 20:42:38;;;;;;;14.07;8.75;;;;;;;;;;7331515;19;153810;-15
2021/09/23 20:45:07;;;;;;;16.45;8.85;;;;;;;;;;7330905;19;161837;-15
2021/09/23 20:47:52;;;;;;;15.07;8.88;;;;;;;;;;7329972;19;162267;-14
2021/09/23 20:50:25;;;;;;;14.75;8.52;;;;;;;;;;7331263;19;154117;-14
2021/09/23 20:52:57;;;;;;;18.88;9.43;;;;;;;;;;7330352;19;153564;-19
2021/09/23 20:55:30;;;;;;;15.70;8.60;;;;;;;;;;7328840;19;162055;-14
2021/09/23 20:58:08;;;;;;;16.20;8.45;;;;;;;;;;7327545;19;162296;-14
2021/09/23 21:00:37;;;;;;;16.55;8.35;;;;;;;;;;7335819;19;154119;-14
2021/09/23 21:03:05;;;;;;;15.95;8.13;;;;;;;;;;7336287;19;153549;-12
2021/09/23 21:05:33;;;;;;;17.17;8.38;;;;;;;;;;7337303;19;161789;-16
2021/09/23 21:08:01;;;;;;;18.58;9.18;;;;;;;;;;7334335;19;162310;-13
2021/09/23 21:10:29;;;;;;;16.90;8.55;;;;;;;;;;7337589;19;153995;-13
2021/09/23 21:12:57;;;;;;;14.32;8.38;;;;;;;;;;7337657;19;155592;-13
2021/09/23 21:15:25;;;;;;;17.00;8.80;;;;;;;;;;7336725;19;161912;-14
2021/09/23 21:17:53;;;;;;;19.85;8.98;;;;;;;;;;7334803;19;162434;-12
2021/09/23 21:20:21;;;;;;;17.10;8.68;;;;;;;;;;7335993;19;154117;-16
2021/09/23 21:22:49;;;;;;;16.55;7.57;;;;;;;;;;7337378;19;153535;-12
2021/09/23 21:25:17;;;;;;;17.42;7.60;;;;;;;;;;7336892;19;161630;-13
2021/09/23 21:27:45;;;;;;;14.60;7.72;;;;;;;;;;7336056;19;162385;-14
2021/09/23 21:30:15;;;;;;;15.35;7.80;;;;;;;;;;7336274;19;154133;-14
2021/09/23 21:32:44;;;;;;;15.63;8.50;;;;;;;;;;7336781;19;153910;-14
2021/09/23 21:35:14;;;;;;;15.85;8.43;;;;;;;;;;7336602;19;161620;-13
2021/09/23 21:37:42;;;;;;;13.73;7.50;;;;;;;;;;7333130;19;162333;-13
2021/09/23 21:40:14;;;;;;;13.13;7.95;;;;;;;;;;7336407;19;153943;-12
2021/09/23 21:42:44;;;;;;;16.17;8.55;;;;;;;;;;7336436;19;153788;-13
2021/09/23 21:45:13;;;;;;;14.75;8.00;;;;;;;;;;7335108;19;161751;-15
2021/09/23 21:47:45;;;;;;;15.45;8.20;;;;;;;;;;7335308;19;162287;-17
2021/09/23 21:50:20;;;;;;;13.15;6.95;;;;;;;;;;7336358;19;153976;-14
2021/09/23 21:52:49;;;;;;;12.20;7.22;;;;;;;;;;7335947;19;153866;-15
2021/09/23 21:55:19;;;;;;;15.23;8.07;;;;;;;;;;7335638;19;161857;-15
2021/09/23 21:57:49;;;;;;;12.63;7.85;;;;;;;;;;7333832;19;162290;-14
2021/09/23 22:00:40;;;;;;;14.32;7.90;;;;;;;;;;7331705;19;154223;-15
2021/09/23 22:03:11;;;;;;;15.70;7.30;;;;;;;;;;7332773;19;153517;-15
2021/09/23 22:05:41;;;;;;;15.70;7.78;;;;;;;;;;7332123;19;162008;-17
2021/09/23 22:08:11;;;;;;;13.43;7.40;;;;;;;;;;7329726;19;162217;-16
2021/09/23 22:10:39;;;;;;;12.27;7.78;;;;;;;;;;7332593;19;153813;-13
2021/09/23 22:13:09;;;;;;;14.65;7.25;;;;;;;;;;7332203;19;154231;-13